sensor_id;sensor_type;location;lat;lon;timestamp;temperature;humidity
64549;DHT22;49838;51.798;10.954;2023-01-25T00:02:13;7.80;55.00
64549;DHT22;49838;51.798;10.954;2023-01-25T00:04:40;7.80;55.10
64549;DHT22;49838;51.798;10.954;2023-01-25T00:07:09;7.70;55.00
64549;DHT22;49838;51.798;10.954;2023-01-25T00:09:36;7.70;55.10
64549;DHT22;49838;51.798;10.954;2023-01-25T00:12:03;7.70;55.10
64549;DHT22;49838;51.798;10.954;2023-01-25T00:14:31;7.60;55.20
64549;DHT22;49838;51.798;10.954;2023-01-25T00:16:58;7.70;55.20
64549;DHT22;49838;51.798;10.954;2023-01-25T00:19:25;7.70;55.20
64549;DHT22;49838;51.798;10.954;2023-01-25T00:21:52;7.70;55.20
64549;DHT22;49838;51.798;10.954;2023-01-25T00:24:21;7.80;55.20
64549;DHT22;49838;51.798;10.954;2023-01-25T00:26:50;7.80;55.20
64549;DHT22;49838;51.798;10.954;2023-01-25T00:29:17;7.80;55.10
64549;DHT22;49838;51.798;10.954;2023-01-25T00:31:48;7.80;55.10
64549;DHT22;49838;51.798;10.954;2023-01-25T00:37:12;7.80;54.90
64549;DHT22;49838;51.798;10.954;2023-01-25T00:39:46;7.70;54.90
64549;DHT22;49838;51.798;10.954;2023-01-25T00:42:14;7.60;55.00
64549;DHT22;49838;51.798;10.954;2023-01-25T00:44:42;7.60;55.00
64549;DHT22;49838;51.798;10.954;2023-01-25T00:47:09;7.60;55.20
64549;DHT22;49838;51.798;10.954;2023-01-25T00:49:37;7.50;55.20
64549;DHT22;49838;51.798;10.954;2023-01-25T00:52:05;7.50;55.30
64549;DHT22;49838;51.798;10.954;2023-01-25T00:54:36;7.50;55.20
64549;DHT22;49838;51.798;10.954;2023-01-25T00:57:05;7.50;55.30
64549;DHT22;49838;51.798;10.954;2023-01-25T00:59:33;7.60;55.30
64549;DHT22;49838;51.798;10.954;2023-01-25T01:02:00;7.60;55.10
64549;DHT22;49838;51.798;10.954;2023-01-25T01:04:27;7.60;55.10
64549;DHT22;49838;51.798;10.954;2023-01-25T01:06:55;7.60;55.20
64549;DHT22;49838;51.798;10.954;2023-01-25T01:09:23;7.60;55.20
64549;DHT22;49838;51.798;10.954;2023-01-25T01:11:50;7.70;55.20
64549;DHT22;49838;51.798;10.954;2023-01-25T01:14:19;7.60;55.00
64549;DHT22;49838;51.798;10.954;2023-01-25T01:16:47;7.60;55.10
64549;DHT22;49838;51.798;10.954;2023-01-25T01:19:14;7.50;55.00
64549;DHT22;49838;51.798;10.954;2023-01-25T01:21:42;7.50;55.00
64549;DHT22;49838;51.798;10.954;2023-01-25T01:24:09;7.50;55.00
64549;DHT22;49838;51.798;10.954;2023-01-25T01:26:37;7.50;55.00
64549;DHT22;49838;51.798;10.954;2023-01-25T01:29:04;7.50;55.00
64549;DHT22;49838;51.798;10.954;2023-01-25T01:31:33;7.50;55.00
64549;DHT22;49838;51.798;10.954;2023-01-25T01:34:00;7.50;55.10
64549;DHT22;49838;51.798;10.954;2023-01-25T01:36:28;7.50;55.00
64549;DHT22;49838;51.798;10.954;2023-01-25T01:38:56;7.50;55.00
64549;DHT22;49838;51.798;10.954;2023-01-25T01:41:24;7.50;55.00
64549;DHT22;49838;51.798;10.954;2023-01-25T01:43:52;7.50;54.90
64549;DHT22;49838;51.798;10.954;2023-01-25T01:46:21;7.50;54.90
64549;DHT22;49838;51.798;10.954;2023-01-25T01:48:53;7.50;54.90
64549;DHT22;49838;51.798;10.954;2023-01-25T01:51:23;7.50;54.90
64549;DHT22;49838;51.798;10.954;2023-01-25T01:53:59;7.50;54.80
64549;DHT22;49838;51.798;10.954;2023-01-25T01:56:30;7.50;54.80
64549;DHT22;49838;51.798;10.954;2023-01-25T01:59:01;7.50;54.70
64549;DHT22;49838;51.798;10.954;2023-01-25T02:01:32;7.40;54.70
64549;DHT22;49838;51.798;10.954;2023-01-25T02:06:44;7.50;54.80
64549;DHT22;49838;51.798;10.954;2023-01-25T02:09:15;7.50;54.80
64549;DHT22;49838;51.798;10.954;2023-01-25T02:11:46;7.50;54.80
64549;DHT22;49838;51.798;10.954;2023-01-25T02:14:14;7.40;54.60
64549;DHT22;49838;51.798;10.954;2023-01-25T02:16:43;7.40;54.70
64549;DHT22;49838;51.798;10.954;2023-01-25T02:19:12;7.40;54.60
64549;DHT22;49838;51.798;10.954;2023-01-25T02:21:49;7.30;54.50
64549;DHT22;49838;51.798;10.954;2023-01-25T02:24:20;7.30;54.60
64549;DHT22;49838;51.798;10.954;2023-01-25T02:26:55;7.30;54.60
64549;DHT22;49838;51.798;10.954;2023-01-25T02:29:22;7.30;54.60
64549;DHT22;49838;51.798;10.954;2023-01-25T02:31:57;7.30;54.70
64549;DHT22;49838;51.798;10.954;2023-01-25T02:34:25;7.30;55.20
64549;DHT22;49838;51.798;10.954;2023-01-25T02:36:52;7.30;54.70
64549;DHT22;49838;51.798;10.954;2023-01-25T02:39:19;7.30;54.80
64549;DHT22;49838;51.798;10.954;2023-01-25T02:41:50;7.30;54.70
64549;DHT22;49838;51.798;10.954;2023-01-25T02:44:20;7.30;54.60
64549;DHT22;49838;51.798;10.954;2023-01-25T02:46:49;7.30;54.60
64549;DHT22;49838;51.798;10.954;2023-01-25T02:49:17;7.30;54.70
64549;DHT22;49838;51.798;10.954;2023-01-25T02:51:45;7.30;54.70
64549;DHT22;49838;51.798;10.954;2023-01-25T02:54:15;7.30;54.60
64549;DHT22;49838;51.798;10.954;2023-01-25T02:56:44;7.20;54.60
64549;DHT22;49838;51.798;10.954;2023-01-25T02:59:11;7.20;54.60
64549;DHT22;49838;51.798;10.954;2023-01-25T03:01:40;7.20;54.60
64549;DHT22;49838;51.798;10.954;2023-01-25T03:04:09;7.20;54.60
64549;DHT22;49838;51.798;10.954;2023-01-25T03:06:37;7.20;54.60
64549;DHT22;49838;51.798;10.954;2023-01-25T03:09:06;7.20;54.70
64549;DHT22;49838;51.798;10.954;2023-01-25T03:11:35;7.20;54.70
64549;DHT22;49838;51.798;10.954;2023-01-25T03:14:02;7.30;54.80
64549;DHT22;49838;51.798;10.954;2023-01-25T03:16:29;7.30;54.80
64549;DHT22;49838;51.798;10.954;2023-01-25T03:18:59;7.30;54.70
64549;DHT22;49838;51.798;10.954;2023-01-25T03:21:27;7.30;54.70
64549;DHT22;49838;51.798;10.954;2023-01-25T03:23:54;7.30;54.80
64549;DHT22;49838;51.798;10.954;2023-01-25T03:26:24;7.30;54.70
64549;DHT22;49838;51.798;10.954;2023-01-25T03:28:52;7.30;54.70
64549;DHT22;49838;51.798;10.954;2023-01-25T03:31:19;7.30;54.70
64549;DHT22;49838;51.798;10.954;2023-01-25T03:33:46;7.40;54.80
64549;DHT22;49838;51.798;10.954;2023-01-25T03:36:15;7.40;54.70
64549;DHT22;49838;51.798;10.954;2023-01-25T03:38:43;7.40;54.80
64549;DHT22;49838;51.798;10.954;2023-01-25T03:41:10;7.40;54.70
64549;DHT22;49838;51.798;10.954;2023-01-25T03:43:38;7.40;54.70
64549;DHT22;49838;51.798;10.954;2023-01-25T03:46:06;7.50;54.80
64549;DHT22;49838;51.798;10.954;2023-01-25T03:48:33;7.60;54.80
64549;DHT22;49838;51.798;10.954;2023-01-25T03:51:00;7.50;54.70
64549;DHT22;49838;51.798;10.954;2023-01-25T03:53:29;7.50;54.60
64549;DHT22;49838;51.798;10.954;2023-01-25T03:55:58;7.50;54.70
64549;DHT22;49838;51.798;10.954;2023-01-25T03:58:27;7.60;54.70
64549;DHT22;49838;51.798;10.954;2023-01-25T04:00:56;7.60;54.70
64549;DHT22;49838;51.798;10.954;2023-01-25T04:03:24;7.60;54.60
64549;DHT22;49838;51.798;10.954;2023-01-25T04:05:52;7.60;54.70
64549;DHT22;49838;51.798;10.954;2023-01-25T04:08:20;7.70;54.70
64549;DHT22;49838;51.798;10.954;2023-01-25T04:10:51;7.70;54.70
64549;DHT22;49838;51.798;10.954;2023-01-25T04:13:18;7.70;54.60
64549;DHT22;49838;51.798;10.954;2023-01-25T04:15:46;7.70;54.60
64549;DHT22;49838;51.798;10.954;2023-01-25T04:18:14;7.70;54.60
64549;DHT22;49838;51.798;10.954;2023-01-25T04:20:42;7.70;54.60
64549;DHT22;49838;51.798;10.954;2023-01-25T04:23:10;7.70;54.60
64549;DHT22;49838;51.798;10.954;2023-01-25T04:25:37;7.70;54.60
64549;DHT22;49838;51.798;10.954;2023-01-25T04:28:06;7.70;54.60
64549;DHT22;49838;51.798;10.954;2023-01-25T04:30:33;7.70;54.60
64549;DHT22;49838;51.798;10.954;2023-01-25T04:33:03;7.70;54.60
64549;DHT22;49838;51.798;10.954;2023-01-25T04:35:31;7.70;55.10
64549;DHT22;49838;51.798;10.954;2023-01-25T04:37:58;7.70;54.40
64549;DHT22;49838;51.798;10.954;2023-01-25T04:40:27;7.70;54.50
64549;DHT22;49838;51.798;10.954;2023-01-25T04:42:54;7.70;54.50
64549;DHT22;49838;51.798;10.954;2023-01-25T04:45:23;7.70;54.50
64549;DHT22;49838;51.798;10.954;2023-01-25T04:47:54;7.60;54.40
64549;DHT22;49838;51.798;10.954;2023-01-25T04:50:22;7.60;54.40
64549;DHT22;49838;51.798;10.954;2023-01-25T04:52:50;7.60;54.50
64549;DHT22;49838;51.798;10.954;2023-01-25T04:55:17;7.60;54.50
64549;DHT22;49838;51.798;10.954;2023-01-25T04:57:44;7.60;54.50
64549;DHT22;49838;51.798;10.954;2023-01-25T05:00:15;7.60;54.50
64549;DHT22;49838;51.798;10.954;2023-01-25T05:02:44;7.60;54.50
64549;DHT22;49838;51.798;10.954;2023-01-25T05:05:12;7.60;54.40
64549;DHT22;49838;51.798;10.954;2023-01-25T05:07:39;7.60;54.40
64549;DHT22;49838;51.798;10.954;2023-01-25T05:10:07;7.60;54.30
64549;DHT22;49838;51.798;10.954;2023-01-25T05:12:35;7.60;54.40
64549;DHT22;49838;51.798;10.954;2023-01-25T05:15:03;7.60;54.20
64549;DHT22;49838;51.798;10.954;2023-01-25T05:17:31;7.50;54.20
64549;DHT22;49838;51.798;10.954;2023-01-25T05:20:00;7.50;54.40
64549;DHT22;49838;51.798;10.954;2023-01-25T05:22:27;7.50;54.50
64549;DHT22;49838;51.798;10.954;2023-01-25T05:24:54;7.50;54.40
64549;DHT22;49838;51.798;10.954;2023-01-25T05:27:24;7.50;54.40
64549;DHT22;49838;51.798;10.954;2023-01-25T05:29:50;7.50;54.30
64549;DHT22;49838;51.798;10.954;2023-01-25T05:32:18;7.50;54.30
64549;DHT22;49838;51.798;10.954;2023-01-25T05:34:47;7.50;54.30
64549;DHT22;49838;51.798;10.954;2023-01-25T05:37:17;7.40;54.20
64549;DHT22;49838;51.798;10.954;2023-01-25T05:39:46;7.40;54.30
64549;DHT22;49838;51.798;10.954;2023-01-25T05:42:13;7.40;54.30
64549;DHT22;49838;51.798;10.954;2023-01-25T05:44:42;7.40;54.30
64549;DHT22;49838;51.798;10.954;2023-01-25T05:47:10;7.30;54.20
64549;DHT22;49838;51.798;10.954;2023-01-25T05:49:39;7.30;54.20
64549;DHT22;49838;51.798;10.954;2023-01-25T05:52:06;7.30;54.20
64549;DHT22;49838;51.798;10.954;2023-01-25T05:54:34;7.30;54.10
64549;DHT22;49838;51.798;10.954;2023-01-25T05:57:02;7.30;54.20
64549;DHT22;49838;51.798;10.954;2023-01-25T05:59:29;7.30;54.20
64549;DHT22;49838;51.798;10.954;2023-01-25T06:01:56;7.20;54.20
64549;DHT22;49838;51.798;10.954;2023-01-25T06:04:23;7.20;54.10
64549;DHT22;49838;51.798;10.954;2023-01-25T06:06:50;7.20;54.10
64549;DHT22;49838;51.798;10.954;2023-01-25T06:09:18;7.10;54.00
64549;DHT22;49838;51.798;10.954;2023-01-25T06:11:46;7.10;54.00
64549;DHT22;49838;51.798;10.954;2023-01-25T06:14:13;7.10;54.00
64549;DHT22;49838;51.798;10.954;2023-01-25T06:16:41;7.00;54.00
64549;DHT22;49838;51.798;10.954;2023-01-25T06:19:08;7.00;54.00
64549;DHT22;49838;51.798;10.954;2023-01-25T06:21:38;6.90;53.90
64549;DHT22;49838;51.798;10.954;2023-01-25T06:24:06;6.90;54.00
64549;DHT22;49838;51.798;10.954;2023-01-25T06:26:33;6.90;54.20
64549;DHT22;49838;51.798;10.954;2023-01-25T06:29:02;6.90;54.10
64549;DHT22;49838;51.798;10.954;2023-01-25T06:31:31;6.90;54.00
64549;DHT22;49838;51.798;10.954;2023-01-25T06:33:59;6.90;54.10
64549;DHT22;49838;51.798;10.954;2023-01-25T06:36:29;6.90;54.30
64549;DHT22;49838;51.798;10.954;2023-01-25T06:38:56;6.90;54.30
64549;DHT22;49838;51.798;10.954;2023-01-25T06:41:24;6.90;54.30
64549;DHT22;49838;51.798;10.954;2023-01-25T06:43:51;6.90;54.30
64549;DHT22;49838;51.798;10.954;2023-01-25T06:46:21;7.00;54.30
64549;DHT22;49838;51.798;10.954;2023-01-25T06:48:49;7.00;54.20
64549;DHT22;49838;51.798;10.954;2023-01-25T06:51:16;7.00;54.20
64549;DHT22;49838;51.798;10.954;2023-01-25T06:53:44;7.00;54.20
64549;DHT22;49838;51.798;10.954;2023-01-25T06:56:13;7.00;54.20
64549;DHT22;49838;51.798;10.954;2023-01-25T06:58:42;7.00;54.30
64549;DHT22;49838;51.798;10.954;2023-01-25T07:01:11;7.10;54.30
64549;DHT22;49838;51.798;10.954;2023-01-25T07:03:40;7.00;54.20
64549;DHT22;49838;51.798;10.954;2023-01-25T07:06:08;7.00;54.20
64549;DHT22;49838;51.798;10.954;2023-01-25T07:08:37;7.10;54.30
64549;DHT22;49838;51.798;10.954;2023-01-25T07:11:05;7.10;54.30
64549;DHT22;49838;51.798;10.954;2023-01-25T07:13:34;7.10;54.20
64549;DHT22;49838;51.798;10.954;2023-01-25T07:16:02;7.10;54.20
64549;DHT22;49838;51.798;10.954;2023-01-25T07:18:31;7.10;54.20
64549;DHT22;49838;51.798;10.954;2023-01-25T07:21:04;7.10;54.30
64549;DHT22;49838;51.798;10.954;2023-01-25T07:23:33;7.10;54.20
64549;DHT22;49838;51.798;10.954;2023-01-25T07:26:03;7.10;54.20
64549;DHT22;49838;51.798;10.954;2023-01-25T07:28:31;7.10;54.10
64549;DHT22;49838;51.798;10.954;2023-01-25T07:31:02;7.10;54.20
64549;DHT22;49838;51.798;10.954;2023-01-25T07:33:31;7.20;54.20
64549;DHT22;49838;51.798;10.954;2023-01-25T07:35:59;7.20;54.40
64549;DHT22;49838;51.798;10.954;2023-01-25T07:38:28;7.20;54.20
64549;DHT22;49838;51.798;10.954;2023-01-25T07:40:55;7.20;54.20
64549;DHT22;49838;51.798;10.954;2023-01-25T07:43:23;7.20;54.10
64549;DHT22;49838;51.798;10.954;2023-01-25T07:45:51;7.20;54.00
64549;DHT22;49838;51.798;10.954;2023-01-25T07:48:18;7.20;54.10
64549;DHT22;49838;51.798;10.954;2023-01-25T07:50:46;7.20;54.10
64549;DHT22;49838;51.798;10.954;2023-01-25T07:53:14;7.30;54.10
64549;DHT22;49838;51.798;10.954;2023-01-25T07:55:43;7.30;54.10
64549;DHT22;49838;51.798;10.954;2023-01-25T07:58:11;7.30;54.10
64549;DHT22;49838;51.798;10.954;2023-01-25T08:00:38;7.30;54.00
64549;DHT22;49838;51.798;10.954;2023-01-25T08:03:05;7.30;54.00
64549;DHT22;49838;51.798;10.954;2023-01-25T08:05:32;7.20;54.00
64549;DHT22;49838;51.798;10.954;2023-01-25T08:08:00;7.30;54.00
64549;DHT22;49838;51.798;10.954;2023-01-25T08:10:27;7.30;54.00
64549;DHT22;49838;51.798;10.954;2023-01-25T08:12:56;7.30;54.00
64549;DHT22;49838;51.798;10.954;2023-01-25T08:15:23;7.30;54.00
64549;DHT22;49838;51.798;10.954;2023-01-25T08:17:50;7.30;54.00
64549;DHT22;49838;51.798;10.954;2023-01-25T08:20:17;7.30;54.00
64549;DHT22;49838;51.798;10.954;2023-01-25T08:22:46;7.30;53.90
64549;DHT22;49838;51.798;10.954;2023-01-25T08:25:14;7.30;54.00
64549;DHT22;49838;51.798;10.954;2023-01-25T08:27:41;7.30;53.90
64549;DHT22;49838;51.798;10.954;2023-01-25T08:30:10;7.30;53.80
64549;DHT22;49838;51.798;10.954;2023-01-25T08:32:38;7.30;53.80
64549;DHT22;49838;51.798;10.954;2023-01-25T08:35:05;7.30;53.80
64549;DHT22;49838;51.798;10.954;2023-01-25T08:37:33;7.30;53.80
64549;DHT22;49838;51.798;10.954;2023-01-25T08:40:01;7.40;53.80
64549;DHT22;49838;51.798;10.954;2023-01-25T08:42:28;7.40;53.90
64549;DHT22;49838;51.798;10.954;2023-01-25T08:44:55;7.50;54.10
64549;DHT22;49838;51.798;10.954;2023-01-25T08:47:24;7.50;54.10
64549;DHT22;49838;51.798;10.954;2023-01-25T08:49:51;7.60;54.10
64549;DHT22;49838;51.798;10.954;2023-01-25T08:52:20;7.60;54.00
64549;DHT22;49838;51.798;10.954;2023-01-25T08:54:47;7.60;54.00
64549;DHT22;49838;51.798;10.954;2023-01-25T08:57:14;7.70;54.10
64549;DHT22;49838;51.798;10.954;2023-01-25T08:59:41;7.70;54.10
64549;DHT22;49838;51.798;10.954;2023-01-25T09:02:09;7.70;54.10
64549;DHT22;49838;51.798;10.954;2023-01-25T09:04:39;7.80;54.10
64549;DHT22;49838;51.798;10.954;2023-01-25T09:07:06;7.80;54.10
64549;DHT22;49838;51.798;10.954;2023-01-25T09:09:33;7.90;54.10
64549;DHT22;49838;51.798;10.954;2023-01-25T09:12:01;7.90;54.00
64549;DHT22;49838;51.798;10.954;2023-01-25T09:14:28;7.90;54.10
64549;DHT22;49838;51.798;10.954;2023-01-25T09:16:55;7.90;54.00
64549;DHT22;49838;51.798;10.954;2023-01-25T09:19:22;7.90;54.00
64549;DHT22;49838;51.798;10.954;2023-01-25T09:21:51;8.00;54.00
64549;DHT22;49838;51.798;10.954;2023-01-25T09:24:18;8.00;54.10
64549;DHT22;49838;51.798;10.954;2023-01-25T09:26:45;8.00;54.00
64549;DHT22;49838;51.798;10.954;2023-01-25T09:29:13;8.00;54.10
64549;DHT22;49838;51.798;10.954;2023-01-25T09:31:40;8.10;54.20
64549;DHT22;49838;51.798;10.954;2023-01-25T09:34:08;8.10;54.30
64549;DHT22;49838;51.798;10.954;2023-01-25T09:36:36;8.20;54.20
64549;DHT22;49838;51.798;10.954;2023-01-25T09:39:04;8.20;54.10
64549;DHT22;49838;51.798;10.954;2023-01-25T09:41:39;8.30;54.30
64549;DHT22;49838;51.798;10.954;2023-01-25T09:44:34;8.40;54.40
64549;DHT22;49838;51.798;10.954;2023-01-25T09:47:13;8.40;54.20
64549;DHT22;49838;51.798;10.954;2023-01-25T09:49:52;8.40;54.00
64549;DHT22;49838;51.798;10.954;2023-01-25T09:52:40;8.50;54.20
64549;DHT22;49838;51.798;10.954;2023-01-25T09:55:25;8.50;54.30
64549;DHT22;49838;51.798;10.954;2023-01-25T09:57:55;8.60;54.40
64549;DHT22;49838;51.798;10.954;2023-01-25T10:00:27;8.70;54.30
64549;DHT22;49838;51.798;10.954;2023-01-25T10:02:59;8.70;54.30
64549;DHT22;49838;51.798;10.954;2023-01-25T10:05:30;8.80;54.40
64549;DHT22;49838;51.798;10.954;2023-01-25T10:08:05;8.80;54.30
64549;DHT22;49838;51.798;10.954;2023-01-25T10:10:39;8.90;54.30
64549;DHT22;49838;51.798;10.954;2023-01-25T10:13:08;9.00;54.40
64549;DHT22;49838;51.798;10.954;2023-01-25T10:15:38;9.00;54.00
64549;DHT22;49838;51.798;10.954;2023-01-25T10:18:12;8.90;53.30
64549;DHT22;49838;51.798;10.954;2023-01-25T10:20:48;8.80;52.60
64549;DHT22;49838;51.798;10.954;2023-01-25T10:23:25;8.70;53.20
64549;DHT22;49838;51.798;10.954;2023-01-25T10:26:04;8.60;53.50
64549;DHT22;49838;51.798;10.954;2023-01-25T10:28:41;8.60;53.70
64549;DHT22;49838;51.798;10.954;2023-01-25T10:31:15;8.60;53.60
64549;DHT22;49838;51.798;10.954;2023-01-25T10:33:45;8.60;53.50
64549;DHT22;49838;51.798;10.954;2023-01-25T10:36:14;8.60;53.40
64549;DHT22;49838;51.798;10.954;2023-01-25T10:38:43;8.60;52.60
64549;DHT22;49838;51.798;10.954;2023-01-25T10:41:15;8.50;51.90
64549;DHT22;49838;51.798;10.954;2023-01-25T10:43:46;8.40;52.70
64549;DHT22;49838;51.798;10.954;2023-01-25T10:46:33;8.30;53.10
64549;DHT22;49838;51.798;10.954;2023-01-25T10:49:01;8.30;53.20
64549;DHT22;49838;51.798;10.954;2023-01-25T10:51:39;8.40;53.40
64549;DHT22;49838;51.798;10.954;2023-01-25T10:54:12;8.50;53.50
64549;DHT22;49838;51.798;10.954;2023-01-25T10:56:42;8.50;53.50
64549;DHT22;49838;51.798;10.954;2023-01-25T10:59:15;8.60;53.70
64549;DHT22;49838;51.798;10.954;2023-01-25T11:01:46;8.70;53.60
64549;DHT22;49838;51.798;10.954;2023-01-25T11:04:25;8.70;53.40
64549;DHT22;49838;51.798;10.954;2023-01-25T11:06:57;8.70;53.20
64549;DHT22;49838;51.798;10.954;2023-01-25T11:09:28;8.70;53.50
64549;DHT22;49838;51.798;10.954;2023-01-25T11:12:02;8.80;53.50
64549;DHT22;49838;51.798;10.954;2023-01-25T11:14:41;8.80;53.50
64549;DHT22;49838;51.798;10.954;2023-01-25T11:17:20;8.90;53.50
64549;DHT22;49838;51.798;10.954;2023-01-25T11:20:03;8.90;53.60
64549;DHT22;49838;51.798;10.954;2023-01-25T11:22:33;8.90;53.60
64549;DHT22;49838;51.798;10.954;2023-01-25T11:28:07;8.90;53.20
64549;DHT22;49838;51.798;10.954;2023-01-25T11:30:36;8.90;53.30
64549;DHT22;49838;51.798;10.954;2023-01-25T11:33:07;8.90;53.20
64549;DHT22;49838;51.798;10.954;2023-01-25T11:35:35;8.90;53.30
64549;DHT22;49838;51.798;10.954;2023-01-25T11:38:14;8.90;53.30
64549;DHT22;49838;51.798;10.954;2023-01-25T11:40:46;8.90;53.40
64549;DHT22;49838;51.798;10.954;2023-01-25T11:43:23;8.90;53.40
64549;DHT22;49838;51.798;10.954;2023-01-25T11:46:07;8.90;53.40
64549;DHT22;49838;51.798;10.954;2023-01-25T11:48:45;8.80;52.60
64549;DHT22;49838;51.798;10.954;2023-01-25T11:51:24;8.80;52.30
64549;DHT22;49838;51.798;10.954;2023-01-25T11:53:59;8.60;52.40
64549;DHT22;49838;51.798;10.954;2023-01-25T11:56:36;8.50;52.70
64549;DHT22;49838;51.798;10.954;2023-01-25T11:59:25;8.50;53.10
64549;DHT22;49838;51.798;10.954;2023-01-25T12:02:14;8.50;53.40
64549;DHT22;49838;51.798;10.954;2023-01-25T12:04:59;8.60;53.60
64549;DHT22;49838;51.798;10.954;2023-01-25T12:07:37;8.70;53.70
64549;DHT22;49838;51.798;10.954;2023-01-25T12:10:14;8.70;53.00
64549;DHT22;49838;51.798;10.954;2023-01-25T12:12:51;8.70;52.90
64549;DHT22;49838;51.798;10.954;2023-01-25T12:15:36;8.60;53.20
64549;DHT22;49838;51.798;10.954;2023-01-25T12:18:23;8.70;53.50
64549;DHT22;49838;51.798;10.954;2023-01-25T12:21:09;8.70;53.40
64549;DHT22;49838;51.798;10.954;2023-01-25T12:23:47;8.70;53.20
64549;DHT22;49838;51.798;10.954;2023-01-25T12:26:27;8.60;52.40
64549;DHT22;49838;51.798;10.954;2023-01-25T12:29:01;8.50;52.50
64549;DHT22;49838;51.798;10.954;2023-01-25T12:31:36;8.40;52.90
64549;DHT22;49838;51.798;10.954;2023-01-25T12:34:09;8.40;53.00
64549;DHT22;49838;51.798;10.954;2023-01-25T12:36:43;8.30;52.80
64549;DHT22;49838;51.798;10.954;2023-01-25T12:39:12;8.30;52.80
64549;DHT22;49838;51.798;10.954;2023-01-25T12:41:44;8.20;52.70
64549;DHT22;49838;51.798;10.954;2023-01-25T12:44:18;8.20;52.80
64549;DHT22;49838;51.798;10.954;2023-01-25T12:46:51;8.10;52.90
64549;DHT22;49838;51.798;10.954;2023-01-25T12:49:25;8.10;53.20
64549;DHT22;49838;51.798;10.954;2023-01-25T12:51:58;8.20;53.40
64549;DHT22;49838;51.798;10.954;2023-01-25T12:54:31;8.20;53.40
64549;DHT22;49838;51.798;10.954;2023-01-25T12:57:08;8.30;53.50
64549;DHT22;49838;51.798;10.954;2023-01-25T12:59:45;8.30;53.50
64549;DHT22;49838;51.798;10.954;2023-01-25T13:02:26;8.40;53.60
64549;DHT22;49838;51.798;10.954;2023-01-25T13:05:17;8.40;53.50
64549;DHT22;49838;51.798;10.954;2023-01-25T13:07:54;8.30;53.40
64549;DHT22;49838;51.798;10.954;2023-01-25T13:10:29;8.30;53.40
64549;DHT22;49838;51.798;10.954;2023-01-25T13:13:01;8.30;53.30
64549;DHT22;49838;51.798;10.954;2023-01-25T13:15:44;8.20;53.40
64549;DHT22;49838;51.798;10.954;2023-01-25T13:21:09;8.20;53.40
64549;DHT22;49838;51.798;10.954;2023-01-25T13:23:39;8.20;53.30
64549;DHT22;49838;51.798;10.954;2023-01-25T13:32:11;8.10;53.20
64549;DHT22;49838;51.798;10.954;2023-01-25T13:34:56;8.10;53.30
64549;DHT22;49838;51.798;10.954;2023-01-25T13:37:24;8.10;53.20
64549;DHT22;49838;51.798;10.954;2023-01-25T13:39:54;8.10;53.20
64549;DHT22;49838;51.798;10.954;2023-01-25T13:42:24;8.10;53.20
64549;DHT22;49838;51.798;10.954;2023-01-25T13:44:53;8.10;53.20
64549;DHT22;49838;51.798;10.954;2023-01-25T13:47:28;8.10;53.30
64549;DHT22;49838;51.798;10.954;2023-01-25T13:50:04;8.10;53.30
64549;DHT22;49838;51.798;10.954;2023-01-25T13:52:35;8.20;53.30
64549;DHT22;49838;51.798;10.954;2023-01-25T13:55:14;8.20;53.30
64549;DHT22;49838;51.798;10.954;2023-01-25T13:57:43;8.20;53.30
64549;DHT22;49838;51.798;10.954;2023-01-25T14:00:13;8.20;53.40
64549;DHT22;49838;51.798;10.954;2023-01-25T14:02:42;8.20;53.40
64549;DHT22;49838;51.798;10.954;2023-01-25T14:05:20;8.20;53.40
64549;DHT22;49838;51.798;10.954;2023-01-25T14:07:49;8.30;53.40
64549;DHT22;49838;51.798;10.954;2023-01-25T14:10:19;8.20;53.20
64549;DHT22;49838;51.798;10.954;2023-01-25T14:12:49;8.20;53.10
64549;DHT22;49838;51.798;10.954;2023-01-25T14:15:18;8.20;53.20
64549;DHT22;49838;51.798;10.954;2023-01-25T14:18:05;8.20;53.30
64549;DHT22;49838;51.798;10.954;2023-01-25T14:20:38;8.20;53.30
64549;DHT22;49838;51.798;10.954;2023-01-25T14:23:18;8.20;53.20
64549;DHT22;49838;51.798;10.954;2023-01-25T14:25:46;8.20;53.20
64549;DHT22;49838;51.798;10.954;2023-01-25T14:28:14;8.20;53.20
64549;DHT22;49838;51.798;10.954;2023-01-25T14:30:41;8.30;53.30
64549;DHT22;49838;51.798;10.954;2023-01-25T14:33:15;8.20;53.20
64549;DHT22;49838;51.798;10.954;2023-01-25T14:35:47;8.20;53.30
64549;DHT22;49838;51.798;10.954;2023-01-25T14:38:20;8.20;53.40
64549;DHT22;49838;51.798;10.954;2023-01-25T14:40:49;8.30;53.50
64549;DHT22;49838;51.798;10.954;2023-01-25T14:43:19;8.30;53.40
64549;DHT22;49838;51.798;10.954;2023-01-25T14:45:47;8.30;53.40
64549;DHT22;49838;51.798;10.954;2023-01-25T14:48:33;8.20;53.30
64549;DHT22;49838;51.798;10.954;2023-01-25T14:51:11;8.20;53.30
64549;DHT22;49838;51.798;10.954;2023-01-25T14:53:41;8.10;53.30
64549;DHT22;49838;51.798;10.954;2023-01-25T14:56:22;8.10;53.20
64549;DHT22;49838;51.798;10.954;2023-01-25T14:58:57;8.00;53.10
64549;DHT22;49838;51.798;10.954;2023-01-25T15:01:27;7.90;53.10
64549;DHT22;49838;51.798;10.954;2023-01-25T15:03:57;7.80;53.10
64549;DHT22;49838;51.798;10.954;2023-01-25T15:06:26;7.70;53.20
64549;DHT22;49838;51.798;10.954;2023-01-25T15:08:56;7.70;53.30
64549;DHT22;49838;51.798;10.954;2023-01-25T15:11:25;7.70;53.40
64549;DHT22;49838;51.798;10.954;2023-01-25T15:14:16;7.60;53.50
64549;DHT22;49838;51.798;10.954;2023-01-25T15:16:46;7.60;53.50
64549;DHT22;49838;51.798;10.954;2023-01-25T15:19:20;7.60;53.60
64549;DHT22;49838;51.798;10.954;2023-01-25T15:21:50;7.70;53.50
64549;DHT22;49838;51.798;10.954;2023-01-25T15:24:17;7.60;53.30
64549;DHT22;49838;51.798;10.954;2023-01-25T15:26:48;7.50;53.30
64549;DHT22;49838;51.798;10.954;2023-01-25T15:29:17;7.50;53.40
64549;DHT22;49838;51.798;10.954;2023-01-25T15:31:47;7.40;53.50
64549;DHT22;49838;51.798;10.954;2023-01-25T15:34:16;7.40;53.50
64549;DHT22;49838;51.798;10.954;2023-01-25T15:36:44;7.40;53.60
64549;DHT22;49838;51.798;10.954;2023-01-25T15:39:14;7.40;53.50
64549;DHT22;49838;51.798;10.954;2023-01-25T15:41:43;7.40;53.50
64549;DHT22;49838;51.798;10.954;2023-01-25T15:44:11;7.30;53.40
64549;DHT22;49838;51.798;10.954;2023-01-25T15:46:40;7.30;53.40
64549;DHT22;49838;51.798;10.954;2023-01-25T15:49:09;7.20;53.40
64549;DHT22;49838;51.798;10.954;2023-01-25T15:51:42;7.20;53.60
64549;DHT22;49838;51.798;10.954;2023-01-25T15:54:10;7.20;53.70
64549;DHT22;49838;51.798;10.954;2023-01-25T15:56:41;7.30;53.80
64549;DHT22;49838;51.798;10.954;2023-01-25T15:59:13;7.30;53.80
64549;DHT22;49838;51.798;10.954;2023-01-25T16:01:43;7.30;53.80
64549;DHT22;49838;51.798;10.954;2023-01-25T16:04:10;7.40;53.80
64549;DHT22;49838;51.798;10.954;2023-01-25T16:06:40;7.40;53.70
64549;DHT22;49838;51.798;10.954;2023-01-25T16:09:16;7.40;53.70